Hall, Montana
Current Conditions -  °F | °C
As of 3:53 PM on Sunday 21 Dec 2014 (Local Time) from KMSO Reporting Station
Clear Clear  
Wind Chill: 30°   Ceiling: Unl
Heat Index: 38°   Visibility: 10mi
Dew Point: 33°   Wind: 14mph
Humidity: 83%   Direction: 300°WNW
Pressure: 29.78"   Gusts: NA
Location:  46.58°N, 113.19°W
Report Text: KMSO 212253Z 30012KT 10SM CLR 03/01 A2978 RMK AO2 PK WND 29030/2217 RAB15E27 SLP104 P0000 T00330006 $
Loading
Personal Weather Stations






























Interactive Weather Map New forecast layout! Learn more

10-Day Weather Forecast

Advertisements
Track Severe Weather on mobile